sensor_id;sensor_type;location;lat;lon;timestamp;pressure;altitude;pressure_sealevel;temperature;humidity
61035;BME280;46916;40.564;-7.958;2023-03-19T00:00:05;97890.59;;;11.36;80.96
61035;BME280;46916;40.564;-7.958;2023-03-19T00:02:08;97898.47;;;11.36;81.43
61035;BME280;46916;40.564;-7.958;2023-03-19T00:04:08;97893.34;;;11.34;81.46
61035;BME280;46916;40.564;-7.958;2023-03-19T00:06:09;97901.19;;;11.34;81.36
61035;BME280;46916;40.564;-7.958;2023-03-19T00:08:10;97904.19;;;11.30;81.26
61035;BME280;46916;40.564;-7.958;2023-03-19T00:10:10;97907.19;;;11.25;81.10
61035;BME280;46916;40.564;-7.958;2023-03-19T00:12:12;97906.34;;;11.25;81.07
61035;BME280;46916;40.564;-7.958;2023-03-19T00:14:13;97907.31;;;11.24;80.87
61035;BME280;46916;40.564;-7.958;2023-03-19T00:16:14;97902.06;;;11.24;80.94
61035;BME280;46916;40.564;-7.958;2023-03-19T00:18:14;97900.28;;;11.24;80.61
61035;BME280;46916;40.564;-7.958;2023-03-19T00:20:15;97913.25;;;11.26;80.52
61035;BME280;46916;40.564;-7.958;2023-03-19T00:22:17;97911.75;;;11.23;80.96
61035;BME280;46916;40.564;-7.958;2023-03-19T00:24:18;97910.03;;;11.22;80.92
61035;BME280;46916;40.564;-7.958;2023-03-19T00:26:19;97918.03;;;11.21;81.32
61035;BME280;46916;40.564;-7.958;2023-03-19T00:28:20;97923.41;;;11.19;81.54
61035;BME280;46916;40.564;-7.958;2023-03-19T00:30:21;97920.91;;;11.18;82.03
61035;BME280;46916;40.564;-7.958;2023-03-19T00:32:23;97914.13;;;11.15;82.18
61035;BME280;46916;40.564;-7.958;2023-03-19T00:34:23;97914.38;;;11.12;82.92
61035;BME280;46916;40.564;-7.958;2023-03-19T00:36:26;97921.41;;;11.11;82.66
61035;BME280;46916;40.564;-7.958;2023-03-19T00:38:27;97920.44;;;11.12;83.02
61035;BME280;46916;40.564;-7.958;2023-03-19T00:40:29;97925.00;;;11.10;82.80
61035;BME280;46916;40.564;-7.958;2023-03-19T00:42:30;97921.88;;;11.05;83.25
61035;BME280;46916;40.564;-7.958;2023-03-19T00:44:31;97931.75;;;11.02;83.25
61035;BME280;46916;40.564;-7.958;2023-03-19T00:46:31;97929.28;;;11.00;83.10
61035;BME280;46916;40.564;-7.958;2023-03-19T00:48:32;97930.22;;;10.99;83.18
61035;BME280;46916;40.564;-7.958;2023-03-19T00:50:33;97922.38;;;10.99;83.50
61035;BME280;46916;40.564;-7.958;2023-03-19T00:52:34;97925.09;;;10.98;83.72
61035;BME280;46916;40.564;-7.958;2023-03-19T00:54:34;97926.19;;;10.95;83.24
61035;BME280;46916;40.564;-7.958;2023-03-19T00:56:36;97933.69;;;10.88;83.42
61035;BME280;46916;40.564;-7.958;2023-03-19T00:58:36;97924.75;;;10.80;83.60
61035;BME280;46916;40.564;-7.958;2023-03-19T01:00:38;97920.31;;;10.69;83.91
61035;BME280;46916;40.564;-7.958;2023-03-19T01:02:39;97918.31;;;10.61;83.94
61035;BME280;46916;40.564;-7.958;2023-03-19T01:04:39;97922.00;;;10.59;83.64
61035;BME280;46916;40.564;-7.958;2023-03-19T01:06:40;97920.78;;;10.52;83.64
61035;BME280;46916;40.564;-7.958;2023-03-19T01:08:41;97917.56;;;10.48;84.05
61035;BME280;46916;40.564;-7.958;2023-03-19T01:10:42;97916.75;;;10.48;84.39
61035;BME280;46916;40.564;-7.958;2023-03-19T01:12:44;97908.28;;;10.44;84.30
61035;BME280;46916;40.564;-7.958;2023-03-19T01:14:45;97908.06;;;10.47;84.81
61035;BME280;46916;40.564;-7.958;2023-03-19T01:16:46;97906.16;;;10.49;84.58
61035;BME280;46916;40.564;-7.958;2023-03-19T01:18:47;97904.03;;;10.54;84.77
61035;BME280;46916;40.564;-7.958;2023-03-19T01:20:48;97905.69;;;10.55;84.43
61035;BME280;46916;40.564;-7.958;2023-03-19T01:22:49;97907.84;;;10.50;84.65
61035;BME280;46916;40.564;-7.958;2023-03-19T01:24:50;97895.09;;;10.46;84.89
61035;BME280;46916;40.564;-7.958;2023-03-19T01:26:51;97899.25;;;10.48;84.50
61035;BME280;46916;40.564;-7.958;2023-03-19T01:29:17;97892.00;;;10.52;84.18
61035;BME280;46916;40.564;-7.958;2023-03-19T01:31:18;97894.25;;;10.56;84.04
61035;BME280;46916;40.564;-7.958;2023-03-19T01:33:27;97894.97;;;10.58;84.58
61035;BME280;46916;40.564;-7.958;2023-03-19T01:35:33;97904.50;;;10.59;84.19
61035;BME280;46916;40.564;-7.958;2023-03-19T01:37:35;97903.44;;;10.62;84.27
61035;BME280;46916;40.564;-7.958;2023-03-19T01:39:36;97901.88;;;10.59;84.53
61035;BME280;46916;40.564;-7.958;2023-03-19T01:41:41;97913.53;;;10.55;84.88
61035;BME280;46916;40.564;-7.958;2023-03-19T01:44:00;97904.47;;;10.48;84.72
61035;BME280;46916;40.564;-7.958;2023-03-19T01:49:02;97918.88;;;10.43;84.49
61035;BME280;46916;40.564;-7.958;2023-03-19T01:51:04;97917.31;;;10.40;84.52
61035;BME280;46916;40.564;-7.958;2023-03-19T01:53:28;97912.94;;;10.29;84.62
61035;BME280;46916;40.564;-7.958;2023-03-19T01:55:52;97907.09;;;10.26;85.62
61035;BME280;46916;40.564;-7.958;2023-03-19T01:58:23;97901.06;;;10.12;85.97
61035;BME280;46916;40.564;-7.958;2023-03-19T02:00:39;97896.25;;;9.95;86.66
61035;BME280;46916;40.564;-7.958;2023-03-19T02:02:40;97900.38;;;9.86;87.00
61035;BME280;46916;40.564;-7.958;2023-03-19T02:05:10;97903.47;;;9.80;88.10
61035;BME280;46916;40.564;-7.958;2023-03-19T02:07:12;97901.56;;;9.82;88.23
61035;BME280;46916;40.564;-7.958;2023-03-19T02:09:14;97903.13;;;9.85;87.98
61035;BME280;46916;40.564;-7.958;2023-03-19T02:11:15;97892.31;;;9.89;88.00
61035;BME280;46916;40.564;-7.958;2023-03-19T02:13:17;97888.19;;;9.98;87.86
61035;BME280;46916;40.564;-7.958;2023-03-19T02:15:18;97892.72;;;10.07;87.09
61035;BME280;46916;40.564;-7.958;2023-03-19T02:17:20;97890.63;;;10.12;86.32
61035;BME280;46916;40.564;-7.958;2023-03-19T02:19:30;97886.81;;;10.16;86.16
61035;BME280;46916;40.564;-7.958;2023-03-19T02:21:32;97895.38;;;10.18;85.55
61035;BME280;46916;40.564;-7.958;2023-03-19T02:24:18;97883.72;;;10.23;85.78
61035;BME280;46916;40.564;-7.958;2023-03-19T02:26:24;97884.22;;;10.28;85.93
61035;BME280;46916;40.564;-7.958;2023-03-19T02:28:32;97891.72;;;10.32;85.32
61035;BME280;46916;40.564;-7.958;2023-03-19T02:30:33;97887.34;;;10.33;85.17
61035;BME280;46916;40.564;-7.958;2023-03-19T02:32:38;97879.13;;;10.26;85.32
61035;BME280;46916;40.564;-7.958;2023-03-19T02:34:41;97882.28;;;10.18;85.66
61035;BME280;46916;40.564;-7.958;2023-03-19T02:36:46;97875.13;;;10.09;85.63
61035;BME280;46916;40.564;-7.958;2023-03-19T02:38:49;97870.00;;;9.97;86.48
61035;BME280;46916;40.564;-7.958;2023-03-19T02:40:54;97872.22;;;9.90;86.90
61035;BME280;46916;40.564;-7.958;2023-03-19T02:42:58;97870.66;;;9.87;87.03
61035;BME280;46916;40.564;-7.958;2023-03-19T02:44:59;97870.06;;;9.84;87.23
61035;BME280;46916;40.564;-7.958;2023-03-19T02:46:59;97865.78;;;9.83;87.09
61035;BME280;46916;40.564;-7.958;2023-03-19T02:49:00;97858.28;;;9.78;87.50
61035;BME280;46916;40.564;-7.958;2023-03-19T02:51:02;97864.81;;;9.73;87.40
61035;BME280;46916;40.564;-7.958;2023-03-19T02:53:03;97857.41;;;9.66;87.68
61035;BME280;46916;40.564;-7.958;2023-03-19T02:55:04;97855.72;;;9.65;87.69
61035;BME280;46916;40.564;-7.958;2023-03-19T02:57:05;97850.06;;;9.72;87.31
61035;BME280;46916;40.564;-7.958;2023-03-19T02:59:06;97845.78;;;9.82;86.73
61035;BME280;46916;40.564;-7.958;2023-03-19T03:01:08;97845.34;;;9.88;85.93
61035;BME280;46916;40.564;-7.958;2023-03-19T03:03:09;97844.88;;;9.94;85.16
61035;BME280;46916;40.564;-7.958;2023-03-19T03:05:10;97848.09;;;9.98;84.81
61035;BME280;46916;40.564;-7.958;2023-03-19T03:07:11;97844.66;;;9.97;84.35
61035;BME280;46916;40.564;-7.958;2023-03-19T03:09:12;97846.66;;;9.93;84.64
61035;BME280;46916;40.564;-7.958;2023-03-19T03:11:13;97847.63;;;9.92;84.16
61035;BME280;46916;40.564;-7.958;2023-03-19T03:13:14;97843.44;;;9.90;83.38
61035;BME280;46916;40.564;-7.958;2023-03-19T03:15:15;97846.53;;;9.84;82.79
61035;BME280;46916;40.564;-7.958;2023-03-19T03:17:16;97842.69;;;9.77;82.65
61035;BME280;46916;40.564;-7.958;2023-03-19T03:19:17;97843.97;;;9.71;81.87
61035;BME280;46916;40.564;-7.958;2023-03-19T03:21:18;97836.94;;;9.60;82.55
61035;BME280;46916;40.564;-7.958;2023-03-19T03:23:20;97834.63;;;9.45;83.33
61035;BME280;46916;40.564;-7.958;2023-03-19T03:25:21;97832.56;;;9.37;84.25
61035;BME280;46916;40.564;-7.958;2023-03-19T03:27:22;97842.69;;;9.41;84.07
61035;BME280;46916;40.564;-7.958;2023-03-19T03:29:23;97838.41;;;9.40;83.88
61035;BME280;46916;40.564;-7.958;2023-03-19T03:31:24;97837.72;;;9.26;83.08
61035;BME280;46916;40.564;-7.958;2023-03-19T03:33:27;97824.72;;;9.13;83.99
61035;BME280;46916;40.564;-7.958;2023-03-19T03:35:28;97823.06;;;9.12;83.88
61035;BME280;46916;40.564;-7.958;2023-03-19T03:37:29;97826.38;;;9.14;83.59
61035;BME280;46916;40.564;-7.958;2023-03-19T03:39:29;97818.53;;;9.14;83.39
61035;BME280;46916;40.564;-7.958;2023-03-19T03:41:30;97806.66;;;9.10;83.26
61035;BME280;46916;40.564;-7.958;2023-03-19T03:43:31;97814.41;;;9.11;82.97
61035;BME280;46916;40.564;-7.958;2023-03-19T03:45:32;97812.41;;;9.15;82.65
61035;BME280;46916;40.564;-7.958;2023-03-19T03:47:33;97806.94;;;9.18;82.19
61035;BME280;46916;40.564;-7.958;2023-03-19T03:49:34;97801.41;;;9.23;81.62
61035;BME280;46916;40.564;-7.958;2023-03-19T03:51:35;97797.59;;;9.27;81.36
61035;BME280;46916;40.564;-7.958;2023-03-19T03:53:36;97804.38;;;9.29;80.90
61035;BME280;46916;40.564;-7.958;2023-03-19T03:55:38;97801.88;;;9.28;80.50
61035;BME280;46916;40.564;-7.958;2023-03-19T03:57:39;97806.63;;;9.23;80.23
61035;BME280;46916;40.564;-7.958;2023-03-19T03:59:40;97816.34;;;9.21;80.46
61035;BME280;46916;40.564;-7.958;2023-03-19T04:01:41;97813.09;;;9.17;81.01
61035;BME280;46916;40.564;-7.958;2023-03-19T04:03:42;97814.28;;;9.13;81.68
61035;BME280;46916;40.564;-7.958;2023-03-19T04:05:44;97825.69;;;9.12;81.45
61035;BME280;46916;40.564;-7.958;2023-03-19T04:07:45;97818.53;;;9.14;81.51
61035;BME280;46916;40.564;-7.958;2023-03-19T04:09:47;97819.41;;;9.14;81.44
61035;BME280;46916;40.564;-7.958;2023-03-19T04:11:49;97822.94;;;9.13;81.32
61035;BME280;46916;40.564;-7.958;2023-03-19T04:13:49;97825.81;;;9.10;81.72
61035;BME280;46916;40.564;-7.958;2023-03-19T04:15:50;97824.94;;;9.10;82.26
61035;BME280;46916;40.564;-7.958;2023-03-19T04:17:53;97830.06;;;9.11;82.02
61035;BME280;46916;40.564;-7.958;2023-03-19T04:19:55;97822.25;;;9.11;81.97
61035;BME280;46916;40.564;-7.958;2023-03-19T04:21:55;97827.34;;;9.13;81.91
61035;BME280;46916;40.564;-7.958;2023-03-19T04:23:56;97829.88;;;9.14;81.90
61035;BME280;46916;40.564;-7.958;2023-03-19T04:26:01;97838.75;;;9.12;81.55
61035;BME280;46916;40.564;-7.958;2023-03-19T04:28:04;97842.41;;;9.09;81.29
61035;BME280;46916;40.564;-7.958;2023-03-19T04:30:05;97856.25;;;8.99;81.26
61035;BME280;46916;40.564;-7.958;2023-03-19T04:32:06;97863.56;;;8.93;81.48
61035;BME280;46916;40.564;-7.958;2023-03-19T04:34:07;97867.56;;;8.86;82.22
61035;BME280;46916;40.564;-7.958;2023-03-19T04:36:08;97866.13;;;8.82;82.83
61035;BME280;46916;40.564;-7.958;2023-03-19T04:38:10;97877.19;;;8.86;83.39
61035;BME280;46916;40.564;-7.958;2023-03-19T04:40:11;97871.53;;;8.92;83.08
61035;BME280;46916;40.564;-7.958;2023-03-19T04:42:14;97862.03;;;8.91;83.48
61035;BME280;46916;40.564;-7.958;2023-03-19T04:44:25;97867.97;;;8.93;83.66
61035;BME280;46916;40.564;-7.958;2023-03-19T04:46:26;97879.22;;;8.93;83.93
61035;BME280;46916;40.564;-7.958;2023-03-19T04:48:27;97873.50;;;8.88;83.60
61035;BME280;46916;40.564;-7.958;2023-03-19T04:50:28;97875.44;;;8.74;84.07
61035;BME280;46916;40.564;-7.958;2023-03-19T04:52:29;97872.31;;;8.56;84.72
61035;BME280;46916;40.564;-7.958;2023-03-19T04:54:31;97879.22;;;8.44;85.35
61035;BME280;46916;40.564;-7.958;2023-03-19T04:56:32;97875.38;;;8.37;85.68
61035;BME280;46916;40.564;-7.958;2023-03-19T04:58:33;97874.72;;;8.33;86.08
61035;BME280;46916;40.564;-7.958;2023-03-19T05:00:36;97878.69;;;8.39;85.99
61035;BME280;46916;40.564;-7.958;2023-03-19T05:02:38;97876.59;;;8.44;85.75
61035;BME280;46916;40.564;-7.958;2023-03-19T05:04:39;97882.44;;;8.48;85.39
61035;BME280;46916;40.564;-7.958;2023-03-19T05:06:43;97879.00;;;8.47;85.36
61035;BME280;46916;40.564;-7.958;2023-03-19T05:08:45;97885.19;;;8.46;85.15
61035;BME280;46916;40.564;-7.958;2023-03-19T05:10:47;97890.41;;;8.46;85.02
61035;BME280;46916;40.564;-7.958;2023-03-19T05:12:48;97890.41;;;8.46;84.55
61035;BME280;46916;40.564;-7.958;2023-03-19T05:14:49;97876.19;;;8.50;84.31
61035;BME280;46916;40.564;-7.958;2023-03-19T05:16:56;97876.59;;;8.57;84.07
61035;BME280;46916;40.564;-7.958;2023-03-19T05:18:58;97884.84;;;8.63;83.66
61035;BME280;46916;40.564;-7.958;2023-03-19T05:20:59;97889.13;;;8.64;82.71
61035;BME280;46916;40.564;-7.958;2023-03-19T05:23:01;97895.16;;;8.65;82.82
61035;BME280;46916;40.564;-7.958;2023-03-19T05:25:16;97893.31;;;8.67;82.69
61035;BME280;46916;40.564;-7.958;2023-03-19T05:27:18;97884.63;;;8.66;82.60
61035;BME280;46916;40.564;-7.958;2023-03-19T05:29:30;97880.44;;;8.64;82.49
61035;BME280;46916;40.564;-7.958;2023-03-19T05:31:49;97886.31;;;8.67;82.32
61035;BME280;46916;40.564;-7.958;2023-03-19T05:33:52;97887.13;;;8.68;82.03
61035;BME280;46916;40.564;-7.958;2023-03-19T05:35:53;97897.69;;;8.66;82.02
61035;BME280;46916;40.564;-7.958;2023-03-19T05:38:21;97893.53;;;8.51;82.45
61035;BME280;46916;40.564;-7.958;2023-03-19T05:40:28;97886.34;;;8.42;83.15
61035;BME280;46916;40.564;-7.958;2023-03-19T05:42:32;97898.22;;;8.46;83.54
61035;BME280;46916;40.564;-7.958;2023-03-19T05:44:33;97902.28;;;8.25;84.36
61035;BME280;46916;40.564;-7.958;2023-03-19T05:46:54;97910.50;;;8.06;85.98
61035;BME280;46916;40.564;-7.958;2023-03-19T05:48:57;97915.69;;;7.93;87.10
61035;BME280;46916;40.564;-7.958;2023-03-19T05:50:58;97914.31;;;7.87;87.75
61035;BME280;46916;40.564;-7.958;2023-03-19T05:53:02;97908.03;;;7.77;88.24
61035;BME280;46916;40.564;-7.958;2023-03-19T05:55:07;97910.13;;;7.72;89.03
61035;BME280;46916;40.564;-7.958;2023-03-19T05:57:16;97909.19;;;7.86;88.50
61035;BME280;46916;40.564;-7.958;2023-03-19T05:59:49;97919.03;;;8.08;88.02
61035;BME280;46916;40.564;-7.958;2023-03-19T06:02:14;97916.78;;;8.29;87.47
61035;BME280;46916;40.564;-7.958;2023-03-19T06:04:16;97926.63;;;8.38;86.71
61035;BME280;46916;40.564;-7.958;2023-03-19T06:06:17;97916.72;;;8.43;86.19
61035;BME280;46916;40.564;-7.958;2023-03-19T06:08:19;97929.63;;;8.44;85.38
61035;BME280;46916;40.564;-7.958;2023-03-19T06:10:33;97918.13;;;8.34;85.02
61035;BME280;46916;40.564;-7.958;2023-03-19T06:12:37;97915.41;;;8.23;85.33
61035;BME280;46916;40.564;-7.958;2023-03-19T06:14:37;97922.59;;;8.19;85.36
61035;BME280;46916;40.564;-7.958;2023-03-19T06:16:58;97923.75;;;8.15;85.24
61035;BME280;46916;40.564;-7.958;2023-03-19T06:18:59;97934.00;;;8.18;85.48
61035;BME280;46916;40.564;-7.958;2023-03-19T06:21:00;97941.50;;;8.23;84.98
61035;BME280;46916;40.564;-7.958;2023-03-19T06:23:01;97935.25;;;8.26;84.43
61035;BME280;46916;40.564;-7.958;2023-03-19T06:25:02;97940.47;;;8.26;84.50
61035;BME280;46916;40.564;-7.958;2023-03-19T06:27:08;97949.53;;;8.20;84.33
61035;BME280;46916;40.564;-7.958;2023-03-19T06:29:10;97944.41;;;8.06;85.15
61035;BME280;46916;40.564;-7.958;2023-03-19T06:31:12;97939.69;;;7.98;85.86
61035;BME280;46916;40.564;-7.958;2023-03-19T06:33:35;97952.22;;;8.06;85.59
61035;BME280;46916;40.564;-7.958;2023-03-19T06:35:36;97947.13;;;8.04;85.37
61035;BME280;46916;40.564;-7.958;2023-03-19T06:37:37;97949.78;;;7.90;85.53
61035;BME280;46916;40.564;-7.958;2023-03-19T06:39:37;97947.25;;;7.76;86.29
61035;BME280;46916;40.564;-7.958;2023-03-19T06:41:39;97950.69;;;7.76;87.09
61035;BME280;46916;40.564;-7.958;2023-03-19T06:43:47;97948.75;;;7.80;87.33
61035;BME280;46916;40.564;-7.958;2023-03-19T06:45:47;97949.06;;;7.88;87.12
61035;BME280;46916;40.564;-7.958;2023-03-19T06:47:48;97946.78;;;7.96;86.89
61035;BME280;46916;40.564;-7.958;2023-03-19T06:49:49;97943.78;;;8.02;86.86
61035;BME280;46916;40.564;-7.958;2023-03-19T06:51:49;97950.16;;;8.11;86.46
61035;BME280;46916;40.564;-7.958;2023-03-19T06:53:51;97964.66;;;8.15;86.32
61035;BME280;46916;40.564;-7.958;2023-03-19T06:55:51;97962.69;;;8.18;86.33
61035;BME280;46916;40.564;-7.958;2023-03-19T06:57:52;97970.72;;;8.15;86.53
61035;BME280;46916;40.564;-7.958;2023-03-19T06:59:53;97969.03;;;8.14;86.53
61035;BME280;46916;40.564;-7.958;2023-03-19T07:01:53;97980.84;;;8.20;86.46
61035;BME280;46916;40.564;-7.958;2023-03-19T07:03:54;97978.88;;;8.24;86.11
61035;BME280;46916;40.564;-7.958;2023-03-19T07:05:56;97976.81;;;8.29;85.94
61035;BME280;46916;40.564;-7.958;2023-03-19T07:07:57;97982.75;;;8.31;85.71
61035;BME280;46916;40.564;-7.958;2023-03-19T07:09:58;97987.25;;;8.29;85.45
61035;BME280;46916;40.564;-7.958;2023-03-19T07:11:59;97979.63;;;8.26;85.55
61035;BME280;46916;40.564;-7.958;2023-03-19T07:13:59;97979.09;;;8.21;86.13
61035;BME280;46916;40.564;-7.958;2023-03-19T07:16:00;97982.63;;;8.19;86.09
61035;BME280;46916;40.564;-7.958;2023-03-19T07:18:02;97984.41;;;8.19;86.18
61035;BME280;46916;40.564;-7.958;2023-03-19T07:20:03;97995.13;;;8.14;86.61
61035;BME280;46916;40.564;-7.958;2023-03-19T07:22:04;97984.06;;;8.11;86.99
61035;BME280;46916;40.564;-7.958;2023-03-19T07:24:05;97986.69;;;8.11;87.10
61035;BME280;46916;40.564;-7.958;2023-03-19T07:26:06;97991.38;;;8.18;86.93
61035;BME280;46916;40.564;-7.958;2023-03-19T07:28:07;97977.00;;;8.26;86.46
61035;BME280;46916;40.564;-7.958;2023-03-19T07:30:08;97974.91;;;8.31;86.53
61035;BME280;46916;40.564;-7.958;2023-03-19T07:32:09;97989.75;;;8.30;86.81
61035;BME280;46916;40.564;-7.958;2023-03-19T07:34:10;97984.72;;;8.27;86.76
61035;BME280;46916;40.564;-7.958;2023-03-19T07:36:11;97978.66;;;8.14;87.01
61035;BME280;46916;40.564;-7.958;2023-03-19T07:38:12;97984.91;;;8.11;87.73
61035;BME280;46916;40.564;-7.958;2023-03-19T07:40:12;97984.81;;;8.13;87.38
61035;BME280;46916;40.564;-7.958;2023-03-19T07:42:13;97984.06;;;8.11;87.53
61035;BME280;46916;40.564;-7.958;2023-03-19T07:44:16;97988.44;;;8.10;87.53
61035;BME280;46916;40.564;-7.958;2023-03-19T07:46:16;97988.13;;;8.02;87.25
61035;BME280;46916;40.564;-7.958;2023-03-19T07:48:17;97985.06;;;7.95;87.06
61035;BME280;46916;40.564;-7.958;2023-03-19T07:50:18;97988.28;;;7.86;87.70
61035;BME280;46916;40.564;-7.958;2023-03-19T07:52:18;97985.38;;;7.91;87.96
61035;BME280;46916;40.564;-7.958;2023-03-19T07:54:19;97986.63;;;7.98;88.06
61035;BME280;46916;40.564;-7.958;2023-03-19T07:56:20;97986.38;;;8.15;87.75
61035;BME280;46916;40.564;-7.958;2023-03-19T07:58:21;97983.50;;;8.33;87.18
61035;BME280;46916;40.564;-7.958;2023-03-19T08:00:22;97982.72;;;8.45;86.78
61035;BME280;46916;40.564;-7.958;2023-03-19T08:02:23;97981.97;;;8.56;86.74
61035;BME280;46916;40.564;-7.958;2023-03-19T08:04:23;97986.88;;;8.60;86.70
61035;BME280;46916;40.564;-7.958;2023-03-19T08:06:24;97993.56;;;8.64;86.58
61035;BME280;46916;40.564;-7.958;2023-03-19T08:08:25;97988.56;;;8.61;86.15
61035;BME280;46916;40.564;-7.958;2023-03-19T08:10:26;97992.09;;;8.73;85.57
61035;BME280;46916;40.564;-7.958;2023-03-19T08:12:27;97990.66;;;8.82;85.49
61035;BME280;46916;40.564;-7.958;2023-03-19T08:14:28;97998.06;;;8.88;85.64
61035;BME280;46916;40.564;-7.958;2023-03-19T08:16:28;97994.41;;;8.90;85.21
61035;BME280;46916;40.564;-7.958;2023-03-19T08:18:29;97997.03;;;8.90;84.52
61035;BME280;46916;40.564;-7.958;2023-03-19T08:20:30;98000.16;;;8.96;84.57
61035;BME280;46916;40.564;-7.958;2023-03-19T08:22:31;97996.91;;;9.05;84.36
61035;BME280;46916;40.564;-7.958;2023-03-19T08:24:32;97996.16;;;9.15;84.12
61035;BME280;46916;40.564;-7.958;2023-03-19T08:26:33;97982.97;;;9.17;83.64
61035;BME280;46916;40.564;-7.958;2023-03-19T08:28:34;97988.94;;;9.19;83.73
61035;BME280;46916;40.564;-7.958;2023-03-19T08:30:36;97989.00;;;9.30;83.99
61035;BME280;46916;40.564;-7.958;2023-03-19T08:32:37;97983.56;;;9.33;83.22
61035;BME280;46916;40.564;-7.958;2023-03-19T08:34:37;97990.56;;;9.33;83.17
61035;BME280;46916;40.564;-7.958;2023-03-19T08:36:38;97976.75;;;9.43;83.39
61035;BME280;46916;40.564;-7.958;2023-03-19T08:38:39;97976.66;;;9.69;82.62
61035;BME280;46916;40.564;-7.958;2023-03-19T08:40:40;97987.63;;;9.98;81.64
61035;BME280;46916;40.564;-7.958;2023-03-19T08:42:41;97985.66;;;10.13;81.50
61035;BME280;46916;40.564;-7.958;2023-03-19T08:44:42;97987.66;;;10.33;80.67
61035;BME280;46916;40.564;-7.958;2023-03-19T08:46:42;97996.31;;;10.58;80.23
61035;BME280;46916;40.564;-7.958;2023-03-19T08:48:43;97987.50;;;10.81;79.39
61035;BME280;46916;40.564;-7.958;2023-03-19T08:50:44;97996.44;;;11.01;78.62
61035;BME280;46916;40.564;-7.958;2023-03-19T08:52:45;97992.75;;;11.26;77.85
61035;BME280;46916;40.564;-7.958;2023-03-19T08:54:46;97999.19;;;11.45;76.67
61035;BME280;46916;40.564;-7.958;2023-03-19T08:56:46;97991.69;;;11.51;76.16
61035;BME280;46916;40.564;-7.958;2023-03-19T08:58:47;97998.44;;;11.65;75.73
61035;BME280;46916;40.564;-7.958;2023-03-19T09:00:48;97993.28;;;11.75;75.72
61035;BME280;46916;40.564;-7.958;2023-03-19T09:02:49;97997.84;;;11.84;75.69
61035;BME280;46916;40.564;-7.958;2023-03-19T09:04:50;97995.53;;;11.90;75.62
61035;BME280;46916;40.564;-7.958;2023-03-19T09:06:50;97990.84;;;12.05;75.51
61035;BME280;46916;40.564;-7.958;2023-03-19T09:08:51;97998.53;;;12.18;75.11
61035;BME280;46916;40.564;-7.958;2023-03-19T09:10:52;97996.25;;;12.25;74.87
61035;BME280;46916;40.564;-7.958;2023-03-19T09:12:53;97994.66;;;12.33;75.17
61035;BME280;46916;40.564;-7.958;2023-03-19T09:14:54;98000.56;;;12.47;75.10
61035;BME280;46916;40.564;-7.958;2023-03-19T09:16:54;97994.28;;;12.59;74.95
61035;BME280;46916;40.564;-7.958;2023-03-19T09:18:55;97998.25;;;12.74;74.85
61035;BME280;46916;40.564;-7.958;2023-03-19T09:20:56;97992.78;;;12.87;74.84
61035;BME280;46916;40.564;-7.958;2023-03-19T09:22:56;98001.72;;;13.05;74.83
61035;BME280;46916;40.564;-7.958;2023-03-19T09:24:57;97995.28;;;13.19;74.02
61035;BME280;46916;40.564;-7.958;2023-03-19T09:26:58;97999.53;;;13.31;73.60
61035;BME280;46916;40.564;-7.958;2023-03-19T09:28:58;98003.84;;;13.42;73.04
61035;BME280;46916;40.564;-7.958;2023-03-19T09:30:59;97997.34;;;13.46;72.66
61035;BME280;46916;40.564;-7.958;2023-03-19T09:33:06;98003.47;;;13.56;72.65
61035;BME280;46916;40.564;-7.958;2023-03-19T09:35:07;98000.84;;;13.66;71.68
61035;BME280;46916;40.564;-7.958;2023-03-19T09:37:08;98001.16;;;13.73;71.35
61035;BME280;46916;40.564;-7.958;2023-03-19T09:39:11;97997.28;;;13.77;71.46
61035;BME280;46916;40.564;-7.958;2023-03-19T09:41:19;97988.97;;;13.91;71.41
61035;BME280;46916;40.564;-7.958;2023-03-19T09:45:45;97993.84;;;14.15;70.75
61035;BME280;46916;40.564;-7.958;2023-03-19T09:47:50;97986.22;;;14.22;70.69
61035;BME280;46916;40.564;-7.958;2023-03-19T09:49:59;97994.41;;;14.28;70.86
61035;BME280;46916;40.564;-7.958;2023-03-19T09:52:37;97992.88;;;14.35;70.92
61035;BME280;46916;40.564;-7.958;2023-03-19T09:54:44;97984.97;;;14.45;70.17
61035;BME280;46916;40.564;-7.958;2023-03-19T09:56:46;97986.25;;;14.51;70.09
61035;BME280;46916;40.564;-7.958;2023-03-19T09:58:47;97987.47;;;14.56;67.70
61035;BME280;46916;40.564;-7.958;2023-03-19T10:00:49;97981.66;;;14.53;65.04
61035;BME280;46916;40.564;-7.958;2023-03-19T10:02:55;97978.47;;;14.49;64.37
61035;BME280;46916;40.564;-7.958;2023-03-19T10:07:42;97976.53;;;14.42;64.16
61035;BME280;46916;40.564;-7.958;2023-03-19T10:10:00;97970.81;;;14.36;63.69
61035;BME280;46916;40.564;-7.958;2023-03-19T10:15:01;97969.44;;;14.32;62.93
61035;BME280;46916;40.564;-7.958;2023-03-19T10:17:05;97972.22;;;14.31;62.61
61035;BME280;46916;40.564;-7.958;2023-03-19T10:19:09;97969.84;;;14.28;62.05
61035;BME280;46916;40.564;-7.958;2023-03-19T10:21:21;97965.28;;;14.30;62.32
61035;BME280;46916;40.564;-7.958;2023-03-19T10:25:31;97962.38;;;14.33;62.41
61035;BME280;46916;40.564;-7.958;2023-03-19T10:27:33;97973.75;;;14.33;62.25
61035;BME280;46916;40.564;-7.958;2023-03-19T10:29:33;97970.56;;;14.30;62.80
61035;BME280;46916;40.564;-7.958;2023-03-19T10:36:35;97967.66;;;14.33;62.55
61035;BME280;46916;40.564;-7.958;2023-03-19T10:38:41;97968.19;;;14.36;62.24
61035;BME280;46916;40.564;-7.958;2023-03-19T10:41:04;97962.78;;;14.38;62.07
61035;BME280;46916;40.564;-7.958;2023-03-19T10:43:15;97968.19;;;14.36;62.62
61035;BME280;46916;40.564;-7.958;2023-03-19T10:45:26;97964.84;;;14.44;63.15
61035;BME280;46916;40.564;-7.958;2023-03-19T10:47:36;97960.94;;;14.48;63.62
61035;BME280;46916;40.564;-7.958;2023-03-19T10:49:37;97954.84;;;14.48;62.35
61035;BME280;46916;40.564;-7.958;2023-03-19T10:51:38;97954.31;;;14.44;63.11
61035;BME280;46916;40.564;-7.958;2023-03-19T10:53:39;97956.94;;;14.44;63.32
61035;BME280;46916;40.564;-7.958;2023-03-19T10:55:47;97950.31;;;14.50;63.26
61035;BME280;46916;40.564;-7.958;2023-03-19T10:57:55;97947.38;;;14.53;63.17
61035;BME280;46916;40.564;-7.958;2023-03-19T11:00:05;97948.63;;;14.58;63.02
61035;BME280;46916;40.564;-7.958;2023-03-19T11:02:20;97949.84;;;14.64;62.60
61035;BME280;46916;40.564;-7.958;2023-03-19T11:04:22;97951.22;;;14.68;62.22
61035;BME280;46916;40.564;-7.958;2023-03-19T11:06:35;97946.06;;;14.76;61.20